createdAt,value
2018-03-27T00:00:06.543Z,75.20
2018-03-27T00:02:34.070Z,75.30
2018-03-27T00:05:01.608Z,75.70
2018-03-27T00:07:29.895Z,76.40
2018-03-27T00:09:58.200Z,76.50
2018-03-27T00:12:25.728Z,76.40
2018-03-27T00:14:54.064Z,76.10
2018-03-27T00:17:21.601Z,76.10
2018-03-27T00:19:49.115Z,77.70
2018-03-27T00:22:17.407Z,78.40
2018-03-27T00:24:45.703Z,77.80
2018-03-27T00:27:12.728Z,77.60
2018-03-27T00:29:52.112Z,77.60
2018-03-27T00:32:31.571Z,77.10
2018-03-27T00:35:11.221Z,76.60
2018-03-27T00:37:50.515Z,77.60
2018-03-27T00:40:29.785Z,77.40
2018-03-27T00:42:57.319Z,76.40
2018-03-27T00:45:24.848Z,76.20
2018-03-27T00:47:52.390Z,76.40
2018-03-27T00:50:19.927Z,76.10
2018-03-27T00:52:47.445Z,76.10
2018-03-27T00:55:14.973Z,76.40
2018-03-27T00:57:42.516Z,77.20
2018-03-27T01:00:10.046Z,78.00
2018-03-27T01:02:37.579Z,77.40
2018-03-27T01:05:09.806Z,77.40
2018-03-27T01:07:37.328Z,77.30
2018-03-27T01:10:04.854Z,77.20
2018-03-27T01:12:33.129Z,76.70
2018-03-27T01:15:00.712Z,76.60
2018-03-27T01:17:28.252Z,76.50
2018-03-27T01:19:55.784Z,76.60
2018-03-27T01:22:23.304Z,76.80
2018-03-27T01:24:50.831Z,76.90
2018-03-27T01:27:19.125Z,77.20
2018-03-27T01:29:46.694Z,77.20
2018-03-27T01:32:14.264Z,77.40
2018-03-27T01:34:41.756Z,77.50
2018-03-27T01:37:09.386Z,78.00
2018-03-27T01:39:36.919Z,77.40
2018-03-27T01:42:04.476Z,78.00
2018-03-27T01:44:32.011Z,78.10
2018-03-27T01:46:59.627Z,78.10
2018-03-27T01:49:27.143Z,77.70
2018-03-27T01:51:54.685Z,77.40
2018-03-27T01:54:22.225Z,77.70
2018-03-27T01:56:49.762Z,77.60
2018-03-27T01:59:17.379Z,78.20
2018-03-27T02:01:44.900Z,78.40
2018-03-27T02:04:12.424Z,77.90
2018-03-27T02:06:39.955Z,78.10
2018-03-27T02:09:07.490Z,78.10
2018-03-27T02:11:40.776Z,79.00
2018-03-27T02:14:13.896Z,78.20
2018-03-27T02:16:46.928Z,78.40
2018-03-27T02:19:20.124Z,78.60
2018-03-27T02:21:47.923Z,78.50
2018-03-27T02:27:12.151Z,78.90
2018-03-27T02:29:39.687Z,79.50
2018-03-27T02:32:07.203Z,79.10
2018-03-27T02:34:35.485Z,79.30
2018-03-27T02:37:03.017Z,79.20
2018-03-27T02:39:30.541Z,79.30
2018-03-27T02:41:58.085Z,79.30
2018-03-27T02:44:25.648Z,79.40
2018-03-27T02:46:53.159Z,79.80
2018-03-27T02:49:20.684Z,80.90
2018-03-27T02:51:48.205Z,81.20
2018-03-27T02:54:15.739Z,81.50
2018-03-27T02:56:43.262Z,81.20
2018-03-27T02:59:10.786Z,80.90
2018-03-27T03:01:39.096Z,81.60
2018-03-27T03:04:06.620Z,81.60
2018-03-27T03:06:34.928Z,82.50
2018-03-27T03:09:02.512Z,82.50
2018-03-27T03:11:30.040Z,83.00
2018-03-27T03:13:57.567Z,83.00
2018-03-27T03:16:25.092Z,83.00
2018-03-27T03:18:52.606Z,84.10
2018-03-27T03:21:20.887Z,84.20
2018-03-27T03:23:48.416Z,84.20
2018-03-27T03:26:15.967Z,84.00
2018-03-27T03:28:43.479Z,83.60
2018-03-27T03:31:10.997Z,83.20
2018-03-27T03:33:38.530Z,82.70
2018-03-27T03:36:06.047Z,82.40
2018-03-27T03:38:34.322Z,81.90
2018-03-27T03:41:01.837Z,81.90
2018-03-27T03:43:29.374Z,82.20
2018-03-27T03:45:56.891Z,82.10
2018-03-27T03:48:24.422Z,81.60
2018-03-27T03:50:52.067Z,81.40
2018-03-27T03:53:19.666Z,81.50
2018-03-27T03:55:47.191Z,81.30
2018-03-27T03:58:14.708Z,81.60
2018-03-27T04:00:42.988Z,81.40
2018-03-27T04:03:11.268Z,81.20
2018-03-27T04:05:38.823Z,81.20
2018-03-27T04:08:06.356Z,80.80
2018-03-27T04:10:33.873Z,81.20
2018-03-27T04:13:02.155Z,81.40
2018-03-27T04:15:29.678Z,81.40
2018-03-27T04:17:57.962Z,81.40
2018-03-27T04:20:25.500Z,81.30
2018-03-27T04:22:53.024Z,81.10
2018-03-27T04:25:20.536Z,80.80
2018-03-27T04:27:48.061Z,80.40
2018-03-27T04:30:16.041Z,80.20
2018-03-27T04:32:43.646Z,80.10
2018-03-27T04:35:11.163Z,79.90
2018-03-27T04:37:38.697Z,79.90
2018-03-27T04:40:06.220Z,80.20
2018-03-27T04:42:34.511Z,80.10
2018-03-27T04:45:02.064Z,80.10
2018-03-27T04:47:29.600Z,80.00
2018-03-27T04:49:57.597Z,80.00
2018-03-27T04:52:25.894Z,80.90
2018-03-27T04:54:53.424Z,80.80
2018-03-27T04:57:20.955Z,80.30
2018-03-27T04:59:48.476Z,79.90
2018-03-27T05:02:16.001Z,79.80
2018-03-27T05:04:44.277Z,79.30
2018-03-27T05:07:11.803Z,79.30
2018-03-27T05:09:39.329Z,79.40
2018-03-27T05:12:07.616Z,79.40
2018-03-27T05:14:35.137Z,79.60
2018-03-27T05:17:03.497Z,80.10
2018-03-27T05:19:31.009Z,80.00
2018-03-27T05:21:58.526Z,80.00
2018-03-27T05:24:26.102Z,79.70
2018-03-27T05:26:53.703Z,79.70
2018-03-27T05:29:21.228Z,79.90
2018-03-27T05:31:48.752Z,80.20
2018-03-27T05:34:16.368Z,80.50
2018-03-27T05:36:43.899Z,80.60
2018-03-27T05:39:11.436Z,80.70
2018-03-27T05:41:38.965Z,80.90
2018-03-27T05:44:06.493Z,81.10
2018-03-27T05:46:34.837Z,80.80
2018-03-27T05:49:02.364Z,80.80
2018-03-27T05:51:29.883Z,80.90
2018-03-27T05:53:57.426Z,81.00
2018-03-27T05:56:24.948Z,80.90
2018-03-27T05:58:52.499Z,82.10
2018-03-27T06:01:20.068Z,80.70
2018-03-27T06:03:47.589Z,80.80
2018-03-27T06:06:15.171Z,80.60
2018-03-27T06:08:43.399Z,80.70
2018-03-27T06:11:10.951Z,80.70
2018-03-27T06:13:38.441Z,80.60
2018-03-27T06:16:06.754Z,80.60
2018-03-27T06:18:34.287Z,80.50
2018-03-27T06:21:02.563Z,81.00
2018-03-27T06:23:30.084Z,81.00
2018-03-27T06:25:57.687Z,81.20
2018-03-27T06:28:25.990Z,81.50
2018-03-27T06:30:53.520Z,81.50
2018-03-27T06:33:21.814Z,81.50
2018-03-27T06:35:49.352Z,81.50
2018-03-27T06:38:16.883Z,81.70
2018-03-27T06:40:44.400Z,81.70
2018-03-27T06:43:11.926Z,81.60
2018-03-27T06:45:39.469Z,81.90
2018-03-27T06:48:06.979Z,82.40
2018-03-27T06:50:34.501Z,82.50
2018-03-27T06:53:02.031Z,82.20
2018-03-27T06:55:29.560Z,82.00
2018-03-27T06:57:57.099Z,80.50
2018-03-27T07:00:24.624Z,80.00
2018-03-27T07:02:52.168Z,80.20
2018-03-27T07:05:19.725Z,81.10
2018-03-27T07:07:47.220Z,81.70
2018-03-27T07:10:14.752Z,80.80
2018-03-27T07:12:42.300Z,80.20
2018-03-27T07:15:09.842Z,79.60
2018-03-27T07:17:37.463Z,80.30
2018-03-27T07:20:04.980Z,80.70
2018-03-27T07:22:32.515Z,81.30
2018-03-27T07:25:00.800Z,81.20
2018-03-27T07:27:28.323Z,81.20
2018-03-27T07:29:55.842Z,80.40
2018-03-27T07:32:23.372Z,79.20
2018-03-27T07:34:50.892Z,79.20
2018-03-27T07:37:18.416Z,78.50
2018-03-27T07:39:45.947Z,77.70
2018-03-27T07:42:14.230Z,75.40
2018-03-27T07:44:41.755Z,75.40
2018-03-27T07:47:09.284Z,75.50
2018-03-27T07:49:36.812Z,74.50
2018-03-27T07:52:04.339Z,73.80
2018-03-27T07:54:31.883Z,74.30
2018-03-27T07:56:59.427Z,73.20
2018-03-27T07:59:26.965Z,72.30
2018-03-27T08:01:54.492Z,70.60
2018-03-27T08:04:22.023Z,70.00
2018-03-27T08:06:49.558Z,68.20
2018-03-27T08:09:17.093Z,68.80
2018-03-27T08:11:44.637Z,67.50
2018-03-27T08:14:12.167Z,67.70
2018-03-27T08:16:40.256Z,65.70
2018-03-27T08:19:07.858Z,66.00
2018-03-27T08:21:35.380Z,65.00
2018-03-27T08:24:03.000Z,65.10
2018-03-27T08:26:30.503Z,64.80
2018-03-27T08:28:58.016Z,62.20
2018-03-27T08:31:25.535Z,61.30
2018-03-27T08:33:53.097Z,60.10
2018-03-27T08:36:21.451Z,58.40
2018-03-27T08:38:48.931Z,58.40
2018-03-27T08:41:16.445Z,58.80
2018-03-27T08:43:43.963Z,57.30
2018-03-27T08:46:11.511Z,55.20
2018-03-27T08:48:39.049Z,52.60
2018-03-27T08:51:06.560Z,52.00
2018-03-27T08:53:34.853Z,50.20
2018-03-27T08:56:02.373Z,50.20
2018-03-27T08:58:30.664Z,50.80
2018-03-27T09:00:58.324Z,50.50
2018-03-27T09:03:25.845Z,49.50
2018-03-27T09:05:54.024Z,49.00
2018-03-27T09:08:21.536Z,47.90
2018-03-27T09:10:59.006Z,48.40
2018-03-27T09:13:26.550Z,49.90
2018-03-27T09:15:54.101Z,49.70
2018-03-27T09:18:21.660Z,50.80
2018-03-27T09:20:49.188Z,50.50
2018-03-27T09:23:16.713Z,49.30
2018-03-27T09:25:44.996Z,49.60
2018-03-27T09:28:12.515Z,49.60
2018-03-27T09:30:40.051Z,49.50
2018-03-27T09:33:07.580Z,47.80
2018-03-27T09:35:35.099Z,47.60
2018-03-27T09:38:02.623Z,47.00
2018-03-27T09:40:30.644Z,46.80
2018-03-27T09:43:02.378Z,48.00
2018-03-27T09:45:29.979Z,48.00
2018-03-27T09:47:57.472Z,48.20
2018-03-27T09:50:25.000Z,48.40
2018-03-27T09:52:52.554Z,48.20
2018-03-27T09:55:20.088Z,48.40
2018-03-27T09:57:47.615Z,47.00
2018-03-27T10:00:15.155Z,46.80
2018-03-27T10:02:43.465Z,49.00
2018-03-27T10:05:11.023Z,48.40
2018-03-27T10:07:38.540Z,48.90
2018-03-27T10:10:06.068Z,49.50
2018-03-27T10:12:33.677Z,49.80
2018-03-27T10:15:01.192Z,49.40
2018-03-27T10:17:28.703Z,49.60
2018-03-27T10:19:56.215Z,49.50
2018-03-27T10:22:23.736Z,49.20
2018-03-27T10:24:51.364Z,49.70
2018-03-27T10:27:18.884Z,49.30
2018-03-27T10:29:46.413Z,48.90
2018-03-27T10:32:13.928Z,49.20
2018-03-27T10:34:41.456Z,47.80
2018-03-27T10:37:08.976Z,47.90
2018-03-27T10:39:36.530Z,46.20
2018-03-27T10:42:04.828Z,46.20
2018-03-27T10:44:32.377Z,46.20
2018-03-27T10:47:01.588Z,48.20
2018-03-27T10:49:29.129Z,48.10
2018-03-27T10:51:57.436Z,49.40
2018-03-27T10:54:24.972Z,49.40
2018-03-27T10:56:53.277Z,51.10
2018-03-27T10:59:20.811Z,51.10
2018-03-27T11:01:49.103Z,53.60
2018-03-27T11:04:16.619Z,53.60
2018-03-27T11:06:44.151Z,54.30
2018-03-27T11:09:11.669Z,54.90
2018-03-27T11:11:39.188Z,54.90
2018-03-27T11:14:06.739Z,55.20
2018-03-27T11:16:34.976Z,55.70
2018-03-27T11:19:03.419Z,55.90
2018-03-27T11:21:30.984Z,56.00
2018-03-27T11:23:58.497Z,55.80
2018-03-27T11:26:26.026Z,55.10
2018-03-27T11:28:53.573Z,55.60
2018-03-27T11:31:21.865Z,55.40
2018-03-27T11:33:49.400Z,55.40
2018-03-27T11:36:16.941Z,55.90
2018-03-27T11:38:44.459Z,57.20
2018-03-27T11:41:12.758Z,58.50
2018-03-27T11:43:40.277Z,58.50
2018-03-27T11:46:08.610Z,57.50
2018-03-27T11:48:36.131Z,57.50
2018-03-27T11:51:03.651Z,58.30
2018-03-27T11:53:31.198Z,58.60
2018-03-27T11:55:58.773Z,60.00
2018-03-27T11:58:26.316Z,61.90
2018-03-27T12:00:53.836Z,62.20
2018-03-27T12:03:22.132Z,64.00
2018-03-27T12:05:49.652Z,64.00
2018-03-27T12:08:17.949Z,67.40
2018-03-27T12:10:46.229Z,69.20
2018-03-27T12:13:13.761Z,69.20
2018-03-27T12:15:41.288Z,69.80
2018-03-27T12:18:08.839Z,71.50
2018-03-27T12:20:36.364Z,71.50
2018-03-27T12:23:03.884Z,71.50
2018-03-27T12:25:31.429Z,70.20
2018-03-27T12:27:59.685Z,71.80
2018-03-27T12:30:27.228Z,72.30
2018-03-27T12:32:55.524Z,72.50
2018-03-27T12:35:23.055Z,72.30
2018-03-27T12:37:51.345Z,73.50
2018-03-27T12:40:18.861Z,73.30
2018-03-27T12:42:47.084Z,73.30
2018-03-27T12:45:14.596Z,73.20
2018-03-27T12:47:42.172Z,73.20
2018-03-27T12:50:09.656Z,71.40
2018-03-27T12:52:37.943Z,71.70
2018-03-27T12:55:05.479Z,71.80
2018-03-27T12:57:33.772Z,72.80
2018-03-27T13:00:01.297Z,72.80
2018-03-27T13:02:28.817Z,72.20
2018-03-27T13:04:56.350Z,72.80
2018-03-27T13:07:23.996Z,73.40
2018-03-27T13:09:52.287Z,73.30
2018-03-27T13:12:19.815Z,73.30
2018-03-27T13:14:47.348Z,74.40
2018-03-27T13:17:14.872Z,73.70
2018-03-27T13:19:42.400Z,73.30
2018-03-27T13:22:09.931Z,73.90
2018-03-27T13:24:37.465Z,73.40
2018-03-27T13:27:05.767Z,74.50
2018-03-27T13:29:33.292Z,74.40
2018-03-27T13:32:02.490Z,75.20
2018-03-27T13:34:30.026Z,75.10
2018-03-27T13:36:57.557Z,75.50
2018-03-27T13:39:25.076Z,75.40
2018-03-27T13:41:52.709Z,77.60
2018-03-27T13:44:21.011Z,77.10
2018-03-27T13:46:48.519Z,77.10
2018-03-27T13:49:16.067Z,76.90
2018-03-27T13:51:43.734Z,77.10
2018-03-27T13:54:11.269Z,77.90
2018-03-27T13:56:38.800Z,78.30
2018-03-27T13:59:06.341Z,78.50
2018-03-27T14:01:33.862Z,78.90
2018-03-27T14:04:01.379Z,79.40
2018-03-27T14:06:29.677Z,80.40
2018-03-27T14:08:57.224Z,79.60
2018-03-27T14:11:25.512Z,78.50
2018-03-27T14:13:53.072Z,78.50
2018-03-27T14:16:21.364Z,80.00
2018-03-27T14:18:48.883Z,80.00
2018-03-27T14:21:16.412Z,82.00
2018-03-27T14:23:44.072Z,82.30
2018-03-27T14:26:11.616Z,83.00
2018-03-27T14:28:39.145Z,83.60
2018-03-27T14:31:06.663Z,84.50
2018-03-27T14:33:34.189Z,84.60
2018-03-27T14:36:01.712Z,84.80
2018-03-27T14:38:29.266Z,85.30
2018-03-27T14:40:56.788Z,85.80
2018-03-27T14:43:25.172Z,86.80
2018-03-27T14:45:52.709Z,88.00
2018-03-27T14:48:20.243Z,87.20
2018-03-27T14:50:48.561Z,88.50
2018-03-27T14:53:16.087Z,88.50
2018-03-27T14:55:44.367Z,89.40
2018-03-27T14:58:11.903Z,89.40
2018-03-27T15:00:39.427Z,90.00
2018-03-27T15:03:07.015Z,89.40
2018-03-27T15:05:34.539Z,89.30
2018-03-27T15:08:02.071Z,90.10
2018-03-27T15:10:30.360Z,89.70
2018-03-27T15:12:57.880Z,89.70
2018-03-27T15:15:25.415Z,90.20
2018-03-27T15:17:52.936Z,90.50
2018-03-27T15:20:22.244Z,90.40
2018-03-27T15:22:49.766Z,91.10
2018-03-27T15:25:17.388Z,90.80
2018-03-27T15:27:44.989Z,90.80
2018-03-27T15:30:12.572Z,91.00
2018-03-27T15:32:41.064Z,90.70
2018-03-27T15:35:09.477Z,90.60
2018-03-27T15:37:37.040Z,90.50
2018-03-27T15:40:04.568Z,90.70
2018-03-27T15:42:32.104Z,90.50
2018-03-27T15:44:59.689Z,90.80
2018-03-27T15:47:27.235Z,90.70
2018-03-27T15:49:55.529Z,90.70
2018-03-27T15:52:23.572Z,90.60
2018-03-27T15:54:51.095Z,91.20
2018-03-27T15:57:18.608Z,90.80
2018-03-27T15:59:46.976Z,91.10
2018-03-27T16:02:14.524Z,91.10
2018-03-27T16:04:42.045Z,91.50
2018-03-27T16:07:09.579Z,91.10
2018-03-27T16:09:37.109Z,91.70
2018-03-27T16:12:04.624Z,91.50
2018-03-27T16:14:32.135Z,91.80
2018-03-27T16:16:59.656Z,91.50
2018-03-27T16:19:27.168Z,91.50
2018-03-27T16:21:54.713Z,91.60
2018-03-27T16:24:22.236Z,92.20
2018-03-27T16:26:49.796Z,92.00
2018-03-27T16:29:17.359Z,92.10
2018-03-27T16:31:44.883Z,92.00
2018-03-27T16:34:13.229Z,92.40
2018-03-27T16:36:40.704Z,92.30
2018-03-27T16:39:09.004Z,92.40
2018-03-27T16:41:36.523Z,92.40
2018-03-27T16:44:04.041Z,92.80
2018-03-27T16:46:31.555Z,92.50
2018-03-27T16:48:59.090Z,92.40
2018-03-27T16:51:26.636Z,92.50
2018-03-27T16:53:54.165Z,92.70
2018-03-27T16:56:21.692Z,92.80
2018-03-27T16:58:49.248Z,92.90
2018-03-27T17:01:16.779Z,92.80
2018-03-27T17:03:44.318Z,92.80
2018-03-27T17:06:11.851Z,92.80
2018-03-27T17:08:39.429Z,92.80
2018-03-27T17:11:07.883Z,93.00
2018-03-27T17:13:35.399Z,93.00
2018-03-27T17:16:02.946Z,93.00
2018-03-27T17:18:30.455Z,93.00
2018-03-27T17:20:57.980Z,93.00
2018-03-27T17:23:25.510Z,93.30
2018-03-27T17:25:53.786Z,93.20
2018-03-27T17:28:21.300Z,93.20
2018-03-27T17:30:48.836Z,93.10
2018-03-27T17:33:16.347Z,93.00
2018-03-27T17:35:43.893Z,93.10
2018-03-27T17:38:12.015Z,93.20
2018-03-27T17:40:39.532Z,93.10
2018-03-27T17:43:07.045Z,93.40
2018-03-27T17:45:34.665Z,93.50
2018-03-27T17:48:02.233Z,93.90
2018-03-27T17:50:30.665Z,93.60
2018-03-27T17:52:58.350Z,93.60
2018-03-27T17:55:26.559Z,93.70
2018-03-27T17:57:55.005Z,93.60
2018-03-27T18:00:22.664Z,93.90
2018-03-27T18:02:50.261Z,94.00
2018-03-27T18:05:17.801Z,94.10
2018-03-27T18:07:45.918Z,94.00
2018-03-27T18:10:13.436Z,94.00
2018-03-27T18:12:40.996Z,94.10
2018-03-27T18:15:08.510Z,94.10
2018-03-27T18:17:36.052Z,94.10
2018-03-27T18:20:05.000Z,94.10
2018-03-27T18:22:32.531Z,94.10
2018-03-27T18:25:00.063Z,94.10
2018-03-27T18:27:28.366Z,94.20
2018-03-27T18:29:55.889Z,94.20
2018-03-27T18:32:23.427Z,94.10
2018-03-27T18:34:50.975Z,94.20
2018-03-27T18:37:18.549Z,94.40
2018-03-27T18:39:46.053Z,94.30
2018-03-27T18:42:13.572Z,94.30
2018-03-27T18:44:41.096Z,94.30
2018-03-27T18:47:08.610Z,94.40
2018-03-27T18:49:36.887Z,94.40
2018-03-27T18:52:06.018Z,94.60
2018-03-27T18:54:33.537Z,94.50
2018-03-27T18:57:01.055Z,94.60
2018-03-27T18:59:28.609Z,94.70
2018-03-27T19:01:56.178Z,94.80
2018-03-27T19:04:23.873Z,94.50
2018-03-27T19:06:51.393Z,94.60
2018-03-27T19:09:18.941Z,94.60
2018-03-27T19:11:46.482Z,94.70
2018-03-27T19:14:14.078Z,94.80
2018-03-27T19:16:41.612Z,94.90
2018-03-27T19:19:09.129Z,94.50
2018-03-27T19:21:36.692Z,94.60
2018-03-27T19:24:04.332Z,94.70
2018-03-27T19:26:31.890Z,94.60
2018-03-27T19:28:59.464Z,94.80
2018-03-27T19:31:27.018Z,94.70
2018-03-27T19:33:54.561Z,94.60
2018-03-27T19:36:22.079Z,94.80
2018-03-27T19:38:49.597Z,94.80
2018-03-27T19:41:17.118Z,94.80
2018-03-27T19:43:44.645Z,94.60
2018-03-27T19:46:12.161Z,94.80
2018-03-27T19:48:39.685Z,94.70
2018-03-27T19:51:07.990Z,95.00
2018-03-27T19:53:35.508Z,94.90
2018-03-27T19:56:03.022Z,94.90
2018-03-27T19:58:30.546Z,94.80
2018-03-27T20:00:59.545Z,95.00
2018-03-27T20:03:27.829Z,95.00
2018-03-27T20:05:56.124Z,95.00
2018-03-27T20:08:23.708Z,94.90
2018-03-27T20:10:51.221Z,95.10
2018-03-27T20:13:18.763Z,95.20
2018-03-27T20:15:46.284Z,95.10
2018-03-27T20:18:13.795Z,95.00
2018-03-27T20:20:41.316Z,95.20
2018-03-27T20:23:08.827Z,95.70
2018-03-27T20:25:37.011Z,95.30
2018-03-27T20:28:04.562Z,95.30
2018-03-27T20:30:32.859Z,95.60
2018-03-27T20:33:00.375Z,95.50
2018-03-27T20:35:28.193Z,95.50
2018-03-27T20:37:55.723Z,95.60
2018-03-27T20:40:23.347Z,95.60
2018-03-27T20:42:51.515Z,95.60
2018-03-27T20:45:19.056Z,95.60
2018-03-27T20:47:46.591Z,95.60
2018-03-27T20:50:14.115Z,95.80
2018-03-27T20:52:41.789Z,95.70
2018-03-27T20:55:09.710Z,95.60
2018-03-27T20:57:37.221Z,95.80
2018-03-27T21:00:04.755Z,95.90
2018-03-27T21:02:32.320Z,95.80
2018-03-27T21:04:59.858Z,96.00
2018-03-27T21:07:27.384Z,96.00
2018-03-27T21:09:54.913Z,95.70
2018-03-27T21:12:22.459Z,95.70
2018-03-27T21:14:49.976Z,95.70
2018-03-27T21:17:18.272Z,95.70
2018-03-27T21:19:46.767Z,95.70
2018-03-27T21:22:14.280Z,95.70
2018-03-27T21:24:42.567Z,95.90
2018-03-27T21:27:10.848Z,95.90
2018-03-27T21:29:38.373Z,95.90
2018-03-27T21:32:05.906Z,95.90
2018-03-27T21:34:33.428Z,96.10
2018-03-27T21:37:01.536Z,96.20
2018-03-27T21:39:29.057Z,96.10
2018-03-27T21:41:56.575Z,96.20
2018-03-27T21:44:24.098Z,96.20
2018-03-27T21:46:51.630Z,96.40
2018-03-27T21:49:19.160Z,96.50
2018-03-27T21:51:46.727Z,96.40
2018-03-27T21:54:14.248Z,96.50
2018-03-27T21:56:42.496Z,96.50
2018-03-27T21:59:10.780Z,96.40
2018-03-27T22:01:38.384Z,96.40
2018-03-27T22:04:05.925Z,96.40
2018-03-27T22:06:33.463Z,96.40
2018-03-27T22:09:01.032Z,96.50
2018-03-27T22:11:28.524Z,96.60
2018-03-27T22:13:56.077Z,96.60
2018-03-27T22:16:23.604Z,96.70
2018-03-27T22:18:51.174Z,96.70
2018-03-27T22:21:18.729Z,96.80
2018-03-27T22:23:46.257Z,96.80
2018-03-27T22:26:13.793Z,96.80
2018-03-27T22:28:41.816Z,96.80
2018-03-27T22:31:10.096Z,97.20
2018-03-27T22:33:38.385Z,97.20
2018-03-27T22:36:06.512Z,97.20
2018-03-27T22:38:34.025Z,97.30
2018-03-27T22:41:01.554Z,97.20
2018-03-27T22:43:29.840Z,96.80
2018-03-27T22:45:58.119Z,96.80
2018-03-27T22:48:25.670Z,96.80
2018-03-27T22:50:53.959Z,96.50
2018-03-27T22:53:21.475Z,96.50
2018-03-27T22:55:49.020Z,96.50
2018-03-27T22:58:17.145Z,96.60
2018-03-27T23:00:45.419Z,96.60
2018-03-27T23:03:13.754Z,96.60
2018-03-27T23:05:41.280Z,96.60
2018-03-27T23:08:08.803Z,96.50
2018-03-27T23:10:36.331Z,96.60
2018-03-27T23:13:03.894Z,96.40
2018-03-27T23:15:31.836Z,96.40
2018-03-27T23:17:59.384Z,96.30
2018-03-27T23:20:26.912Z,96.30
2018-03-27T23:22:54.439Z,96.30
2018-03-27T23:25:21.971Z,96.10
2018-03-27T23:27:49.499Z,96.00
2018-03-27T23:30:17.015Z,95.80
2018-03-27T23:32:44.536Z,95.80
2018-03-27T23:35:12.818Z,95.80
2018-03-27T23:37:40.352Z,95.80
2018-03-27T23:40:07.865Z,95.80
2018-03-27T23:42:35.389Z,95.80
2018-03-27T23:45:03.667Z,95.70
2018-03-27T23:47:31.956Z,95.80
2018-03-27T23:49:59.493Z,95.70
2018-03-27T23:52:27.031Z,95.70
2018-03-27T23:54:54.545Z,95.70
2018-03-27T23:57:22.060Z,95.70
2018-03-27T23:59:49.575Z,95.70
